Time;durP1;ratioP1;P1;durP2;ratioP2;P2;SDS_P1;SDS_P2;PMS_P1;PMS_P2;Temp;Humidity;BMP_temperature;BMP_pressure;BME280_temperature;BME280_humidity;BME280_pressure;Samples;Min_cycle;Max_cycle;Signal;HPM_P1;HPM_P2
2023/04/27 03:53:39;;;;;;;3.78;3.37;;;;;;;3.45;90.49;100697.41;5395569;33;34069;-90
2023/04/27 03:56:45;;;;;;;8.15;3.65;;;;;;;3.41;90.82;100699.47;5386044;33;34105;-91
2023/04/27 03:59:49;;;;;;;3.62;3.17;;;;;;;3.36;91.16;100710.50;5385363;33;34122;-88
2023/04/27 04:02:52;;;;;;;9.45;3.75;;;;;;;3.36;91.93;100709.62;5373308;33;33680;-87
2023/04/27 04:05:55;;;;;;;7.75;3.28;;;;;;;3.45;91.29;100714.22;5384979;33;33876;-88
2023/04/27 04:08:58;;;;;;;5.53;3.28;;;;;;;3.55;90.23;100712.50;5385114;33;34301;-87
2023/04/27 04:12:02;;;;;;;6.07;3.70;;;;;;;3.68;89.58;100711.50;5385657;33;33791;-87
2023/04/27 04:15:06;;;;;;;4.05;3.12;;;;;;;3.76;89.61;100728.56;5374170;33;33832;-85
2023/04/27 04:18:09;;;;;;;5.07;3.35;;;;;;;3.82;88.69;100725.37;5400752;33;35290;-86
2023/04/27 04:21:12;;;;;;;6.78;3.28;;;;;;;3.95;88.81;100725.25;5398562;33;33568;-86
2023/04/27 04:24:15;;;;;;;5.03;3.62;;;;;;;4.04;89.43;100732.47;5398556;33;34879;-86
2023/04/27 04:27:18;;;;;;;4.45;3.45;;;;;;;4.20;89.17;100729.38;5385338;33;34216;-86
2023/04/27 04:30:22;;;;;;;5.15;3.50;;;;;;;4.35;86.84;100737.06;5385178;33;34464;-86
2023/04/27 04:33:25;;;;;;;3.67;3.37;;;;;;;4.49;86.21;100736.72;5385163;33;33792;-85
2023/04/27 04:36:29;;;;;;;6.95;3.70;;;;;;;4.66;87.67;100732.66;5373302;33;33670;-86
2023/04/27 04:39:32;;;;;;;6.43;4.05;;;;;;;4.86;86.67;100738.94;5407042;33;34306;-86
2023/04/27 04:42:37;;;;;;;6.45;3.80;;;;;;;4.94;88.52;100734.63;5393287;33;33899;-87
2023/04/27 04:45:40;;;;;;;5.78;4.35;;;;;;;5.09;84.30;100745.81;5393229;33;34654;-86
2023/04/27 04:48:44;;;;;;;10.18;4.32;;;;;;;5.24;86.75;100738.28;5394638;33;34330;-85
2023/04/27 04:51:46;;;;;;;8.55;4.10;;;;;;;5.41;84.50;100734.09;5372803;33;34668;-86
2023/04/27 04:54:52;;;;;;;6.87;4.10;;;;;;;5.56;83.00;100738.09;5373381;33;33494;-85
2023/04/27 04:57:55;;;;;;;7.05;4.18;;;;;;;5.66;83.78;100743.47;5399631;33;34687;-85
2023/04/27 05:00:58;;;;;;;4.10;3.70;;;;;;;5.86;81.13;100739.84;5373850;33;33876;-85
2023/04/27 05:04:01;;;;;;;5.93;4.20;;;;;;;6.00;79.06;100743.13;5397637;33;33691;-85
2023/04/27 05:07:05;;;;;;;4.75;3.92;;;;;;;6.19;78.07;100745.81;5384774;33;34576;-86
2023/04/27 05:10:08;;;;;;;7.62;3.97;;;;;;;6.34;78.37;100748.91;5396230;32;33869;-86
2023/04/27 05:13:11;;;;;;;6.05;3.90;;;;;;;6.48;74.83;100759.16;5402576;33;33466;-87
2023/04/27 05:16:14;;;;;;;7.07;4.07;;;;;;;6.72;74.68;100755.19;5392998;33;34742;-86
2023/04/27 05:19:19;;;;;;;6.30;4.15;;;;;;;6.75;76.14;100760.25;5385149;33;34521;-86
2023/04/27 05:22:22;;;;;;;7.40;4.03;;;;;;;6.79;73.11;100762.50;5373748;33;33756;-86
2023/04/27 05:25:24;;;;;;;3.60;3.30;;;;;;;6.92;72.79;100764.88;5399499;33;33685;-87
2023/04/27 05:28:27;;;;;;;5.10;3.53;;;;;;;7.18;69.94;100770.44;5385670;33;34168;-86
2023/04/27 05:31:30;;;;;;;5.05;3.95;;;;;;;7.23;70.73;100767.34;5374399;33;33482;-86
2023/04/27 05:34:33;;;;;;;6.45;3.80;;;;;;;7.48;70.11;100773.84;5385920;33;34006;-86
2023/04/27 05:37:36;;;;;;;6.57;4.10;;;;;;;7.60;69.12;100782.53;5377863;33;34926;-86
2023/04/27 05:40:38;;;;;;;8.02;4.45;;;;;;;7.77;68.00;100771.00;5387528;33;34007;-86
2023/04/27 05:43:41;;;;;;;5.28;4.00;;;;;;;7.89;67.63;100777.84;5387187;33;34218;-86
2023/04/27 05:46:44;;;;;;;8.13;4.53;;;;;;;7.80;70.32;100776.06;5376663;33;34593;-86
2023/04/27 05:49:53;;;;;;;7.45;4.68;;;;;;;8.06;67.57;100784.22;5385455;33;33346;-87
2023/04/27 05:52:56;;;;;;;7.00;4.55;;;;;;;8.17;66.95;100783.19;5398631;33;34007;-87
2023/04/27 05:56:00;;;;;;;9.20;5.15;;;;;;;8.35;67.12;100783.19;5385430;33;33540;-87
2023/04/27 05:59:03;;;;;;;6.57;4.65;;;;;;;8.61;64.32;100794.00;5399756;33;34876;-87
2023/04/27 06:02:06;;;;;;;8.23;4.97;;;;;;;8.94;62.45;100794.25;5409786;33;35256;-87
2023/04/27 06:05:09;;;;;;;7.37;4.70;;;;;;;9.45;61.25;100784.50;5398215;33;33937;-89
2023/04/27 06:08:12;;;;;;;10.88;5.20;;;;;;;9.78;61.10;100790.84;5375788;33;34056;-91
2023/04/27 06:11:15;;;;;;;11.32;5.62;;;;;;;9.93;58.50;100793.75;5408048;33;33801;-89
2023/04/27 06:14:19;;;;;;;9.27;4.85;;;;;;;10.01;59.46;100790.25;5403234;33;35280;-92
2023/04/27 06:17:22;;;;;;;8.80;4.90;;;;;;;10.23;57.68;100793.16;5372344;33;34438;-87
2023/04/27 06:20:25;;;;;;;7.62;4.45;;;;;;;10.35;55.94;100792.87;5396042;32;33647;-88
2023/04/27 06:23:29;;;;;;;6.45;4.25;;;;;;;10.42;53.56;100796.59;5372014;33;33518;-87
2023/04/27 06:26:32;;;;;;;6.03;4.03;;;;;;;10.61;51.09;100796.25;5381668;33;33840;-88
2023/04/27 06:29:35;;;;;;;8.88;4.20;;;;;;;10.81;52.16;100794.06;5384082;33;33246;-87
2023/04/27 06:32:38;;;;;;;4.82;3.67;;;;;;;10.66;54.64;100804.69;5404253;33;34540;-88
2023/04/27 06:35:41;;;;;;;7.97;4.03;;;;;;;10.85;50.19;100808.03;5383876;33;33261;-88
2023/04/27 06:38:47;;;;;;;5.10;3.37;;;;;;;10.57;49.81;100802.16;5386467;33;33465;-86
2023/04/27 06:41:51;;;;;;;5.35;3.83;;;;;;;10.85;50.78;100808.91;5397445;33;34938;-88
2023/04/27 06:44:57;;;;;;;9.70;4.85;;;;;;;10.90;50.62;100808.38;5383748;33;33703;-87
2023/04/27 06:48:00;;;;;;;7.30;3.83;;;;;;;10.85;49.70;100811.59;5378821;33;33919;-87
2023/04/27 06:51:04;;;;;;;7.25;3.47;;;;;;;10.53;48.63;100816.94;5374435;33;33790;-87
2023/04/27 06:54:07;;;;;;;8.63;4.60;;;;;;;10.56;47.66;100806.72;5389804;33;33715;-87
2023/04/27 06:57:10;;;;;;;8.73;4.12;;;;;;;10.72;47.88;100810.41;5370386;33;33546;-87
2023/04/27 07:00:13;;;;;;;6.75;3.60;;;;;;;10.62;45.79;100803.34;5371622;33;33890;-87
2023/04/27 07:03:16;;;;;;;6.80;3.50;;;;;;;10.64;46.83;100811.22;5365678;33;33682;-87
2023/04/27 07:06:21;;;;;;;5.62;3.42;;;;;;;10.43;48.30;100811.72;5353101;33;33910;-87
2023/04/27 07:09:23;;;;;;;6.05;3.87;;;;;;;10.05;48.68;100813.97;5364762;33;33656;-87
2023/04/27 07:12:29;;;;;;;7.10;3.40;;;;;;;10.54;48.36;100818.66;5372801;33;33811;-86
2023/04/27 07:15:32;;;;;;;6.18;4.07;;;;;;;10.88;46.99;100811.25;5364940;33;33335;-87
2023/04/27 07:18:35;;;;;;;11.48;3.87;;;;;;;10.96;46.49;100817.63;5367094;33;33746;-87
2023/04/27 07:21:38;;;;;;;5.57;3.67;;;;;;;11.21;46.11;100821.16;5381274;33;34497;-87
2023/04/27 07:24:41;;;;;;;6.28;3.40;;;;;;;11.27;43.28;100810.53;5381329;33;33838;-87
2023/04/27 07:27:44;;;;;;;3.50;2.50;;;;;;;11.39;42.50;100816.37;5368033;33;33520;-86
2023/04/27 07:30:47;;;;;;;3.92;2.47;;;;;;;11.47;41.99;100815.53;5381612;33;33607;-86
2023/04/27 07:33:50;;;;;;;3.00;2.65;;;;;;;11.38;41.42;100827.31;5357844;33;34445;-87
2023/04/27 07:36:53;;;;;;;3.08;2.40;;;;;;;11.56;41.07;100830.69;5386364;33;32805;-88
2023/04/27 07:39:58;;;;;;;3.40;2.22;;;;;;;11.55;41.74;100824.44;5386848;33;34009;-89
2023/04/27 07:43:01;;;;;;;3.60;2.20;;;;;;;11.80;41.22;100822.47;5375255;33;33447;-90
2023/04/27 07:46:04;;;;;;;2.17;1.98;;;;;;;11.67;39.95;100830.31;5372927;33;33931;-88
2023/04/27 07:49:07;;;;;;;4.50;2.15;;;;;;;12.15;37.98;100819.50;5386697;33;34056;-88
2023/04/27 07:52:10;;;;;;;5.93;2.20;;;;;;;12.56;39.63;100824.63;5368842;33;35220;-88
2023/04/27 07:55:14;;;;;;;3.15;2.50;;;;;;;12.84;35.42;100819.50;5381076;33;34145;-88
2023/04/27 07:58:18;;;;;;;3.28;2.12;;;;;;;12.97;37.67;100819.75;5356280;33;33845;-87
2023/04/27 08:01:21;;;;;;;3.87;2.22;;;;;;;13.11;36.67;100818.09;5367420;33;34732;-87
2023/04/27 08:04:25;;;;;;;2.90;2.00;;;;;;;13.19;36.08;100820.69;5381340;33;33436;-88
2023/04/27 08:07:29;;;;;;;4.25;2.22;;;;;;;13.33;37.43;100819.06;5357401;33;34619;-87
2023/04/27 08:10:32;;;;;;;2.95;2.10;;;;;;;13.74;33.63;100819.44;5379564;33;34491;-87
2023/04/27 08:13:35;;;;;;;3.80;2.35;;;;;;;13.69;35.56;100813.78;5377568;33;35270;-89
2023/04/27 08:16:42;;;;;;;4.43;2.30;;;;;;;13.76;34.19;100806.59;5383110;33;33554;-88
2023/04/27 08:19:45;;;;;;;3.40;2.05;;;;;;;12.99;33.21;100811.47;5370126;33;35188;-89
2023/04/27 08:22:50;;;;;;;2.97;1.95;;;;;;;13.19;32.92;100814.47;5368838;33;33635;-91
2023/04/27 08:25:55;;;;;;;2.08;1.85;;;;;;;13.43;32.88;100813.41;5380910;33;33807;-87
2023/04/27 08:28:58;;;;;;;1.98;1.67;;;;;;;13.49;33.53;100810.78;5368416;33;33755;-88
2023/04/27 08:32:05;;;;;;;2.70;1.95;;;;;;;13.59;33.97;100816.75;5381116;33;33945;-87
2023/04/27 08:35:09;;;;;;;4.85;2.10;;;;;;;13.88;33.86;100816.94;5380579;33;33790;-87
2023/04/27 08:38:11;;;;;;;4.35;2.12;;;;;;;13.69;34.16;100808.38;5380566;33;33421;-88
2023/04/27 08:41:20;;;;;;;2.50;2.08;;;;;;;13.82;35.20;100815.81;5368156;33;33752;-88
2023/04/27 08:44:24;;;;;;;5.00;1.90;;;;;;;13.52;35.17;100807.72;5391153;33;34838;-87
2023/04/27 08:47:27;;;;;;;3.92;2.05;;;;;;;13.66;34.47;100811.47;5366795;33;33704;-87
2023/04/27 08:50:45;;;;;;;5.28;2.00;;;;;;;13.48;34.64;100810.97;5391378;33;34396;-87
2023/04/27 08:53:54;;;;;;;5.40;2.40;;;;;;;13.60;34.83;100812.19;5384987;33;33076;-88
2023/04/27 08:56:57;;;;;;;4.12;2.10;;;;;;;13.64;33.74;100816.19;5398062;33;33795;-87
2023/04/27 09:00:00;;;;;;;3.72;2.20;;;;;;;13.80;33.38;100810.56;5371711;33;34673;-88
2023/04/27 09:03:03;;;;;;;2.92;2.22;;;;;;;13.76;34.21;100806.59;5370033;33;32655;-87
2023/04/27 09:06:08;;;;;;;3.30;2.17;;;;;;;13.85;34.08;100801.91;5367035;33;33425;-88
2023/04/27 09:09:21;;;;;;;3.40;1.85;;;;;;;13.91;35.79;100803.84;5380192;33;34546;-88
2023/04/27 09:12:26;;;;;;;3.62;2.10;;;;;;;13.97;35.48;100791.44;5379890;33;33434;-88
2023/04/27 09:15:29;;;;;;;2.78;1.87;;;;;;;14.23;33.33;100793.59;5372913;33;32519;-87
2023/04/27 09:18:36;;;;;;;2.95;2.08;;;;;;;14.70;32.22;100798.47;5379425;33;33702;-88
2023/04/27 09:21:39;;;;;;;4.60;2.47;;;;;;;15.29;31.70;100788.31;5379998;33;33694;-88
2023/04/27 09:24:52;;;;;;;3.47;2.22;;;;;;;15.22;31.69;100790.16;5378315;33;34674;-87
2023/04/27 09:27:56;;;;;;;2.53;2.05;;;;;;;14.55;32.08;100795.00;5380474;33;33983;-87
2023/04/27 09:31:01;;;;;;;7.30;2.60;;;;;;;13.58;33.74;100793.44;5384046;33;34867;-88
2023/04/27 09:34:05;;;;;;;4.70;2.00;;;;;;;13.17;36.35;100790.31;5382413;33;33851;-87
2023/04/27 09:37:09;;;;;;;3.10;2.00;;;;;;;13.18;34.78;100789.28;5396251;33;33794;-87
2023/04/27 09:40:13;;;;;;;3.35;2.22;;;;;;;13.27;35.40;100785.50;5358107;33;33389;-87
2023/04/27 09:43:16;;;;;;;3.85;2.20;;;;;;;13.26;34.96;100785.69;5392319;33;34053;-87
2023/04/27 09:46:21;;;;;;;2.97;2.28;;;;;;;13.38;34.33;100778.81;5390634;33;33311;-87
2023/04/27 09:49:26;;;;;;;4.80;2.37;;;;;;;13.71;34.67;100773.81;5390699;33;34180;-91
2023/04/27 09:52:28;;;;;;;4.87;2.12;;;;;;;14.02;34.02;100776.28;5366986;33;34047;-91
2023/04/27 09:55:38;;;;;;;3.33;2.15;;;;;;;14.06;34.96;100785.69;5349607;33;184573;-89
2023/04/27 09:59:18;;;;;;;2.35;2.17;;;;;;;14.19;35.20;100771.50;5383388;33;33477;-88
2023/04/27 10:02:22;;;;;;;4.05;2.03;;;;;;;14.25;35.51;100770.72;5397713;33;33943;-88
2023/04/27 10:05:41;;;;;;;2.65;1.90;;;;;;;14.40;34.20;100765.25;5376716;33;34705;-88
2023/04/27 10:08:44;;;;;;;2.58;2.00;;;;;;;14.82;32.45;100762.72;5380575;33;33478;-88
2023/04/27 10:11:48;;;;;;;5.62;2.22;;;;;;;14.68;32.36;100757.22;5369381;33;35238;-88
2023/04/27 10:14:55;;;;;;;2.33;1.80;;;;;;;15.36;32.49;100745.78;5379794;33;33465;-88
2023/04/27 10:18:04;;;;;;;6.22;2.30;;;;;;;15.58;31.15;100744.63;5388374;33;33446;-88
2023/04/27 10:21:10;;;;;;;3.37;1.80;;;;;;;16.36;31.71;100741.56;5401112;33;33592;-88
2023/04/27 10:24:13;;;;;;;2.78;1.87;;;;;;;16.86;29.31;100743.94;5402868;33;35663;-88
2023/04/27 10:27:20;;;;;;;4.40;2.17;;;;;;;16.87;29.60;100751.03;5391449;33;35204;-87
2023/04/27 10:30:26;;;;;;;3.25;2.30;;;;;;;15.78;30.40;100750.19;5402264;33;35387;-88
2023/04/27 10:33:28;;;;;;;1.98;1.77;;;;;;;15.22;31.50;100736.72;5373625;33;33782;-87
2023/04/27 10:36:36;;;;;;;2.83;2.08;;;;;;;15.10;33.34;100744.59;5379462;32;33838;-87
2023/04/27 10:39:41;;;;;;;3.75;2.28;;;;;;;14.99;32.95;100747.00;5399785;32;34789;-87
2023/04/27 10:42:50;;;;;;;2.62;2.00;;;;;;;15.74;31.42;100745.37;5390704;33;33716;-88
2023/04/27 10:45:54;;;;;;;6.20;2.42;;;;;;;16.80;33.05;100737.44;5388447;33;33803;-87
2023/04/27 10:48:57;;;;;;;6.30;2.20;;;;;;;17.65;29.81;100745.63;5386936;33;34708;-87
2023/04/27 10:52:03;;;;;;;5.05;2.28;;;;;;;16.67;29.38;100746.41;5380630;33;33650;-88
2023/04/27 10:55:19;;;;;;;2.95;1.92;;;;;;;15.69;31.32;100743.25;5376491;32;34180;-91
2023/04/27 10:58:22;;;;;;;4.60;2.30;;;;;;;15.34;30.93;100745.16;5387571;32;34164;-88
2023/04/27 11:01:27;;;;;;;5.55;2.10;;;;;;;16.46;30.14;100750.13;5390019;33;32568;-87
2023/04/27 11:04:39;;;;;;;3.55;1.77;;;;;;;17.55;30.56;100734.34;5395374;33;33784;-87
2023/04/27 11:07:42;;;;;;;2.45;2.10;;;;;;;17.96;29.39;100728.56;5390669;32;33719;-87
2023/04/27 11:10:48;;;;;;;5.30;2.00;;;;;;;18.63;27.74;100731.63;5380430;33;34176;-88
2023/04/27 11:13:54;;;;;;;2.47;1.98;;;;;;;19.18;26.01;100731.78;5388054;33;34303;-87
2023/04/27 11:16:57;;;;;;;3.97;1.83;;;;;;;19.12;26.28;100721.78;5388462;33;33550;-87
2023/04/27 11:20:00;;;;;;;2.85;1.60;;;;;;;19.10;25.82;100723.94;5380938;33;34787;-88
2023/04/27 11:23:03;;;;;;;2.50;1.80;;;;;;;20.23;24.98;100724.44;5404841;33;34565;-88
2023/04/27 11:26:18;;;;;;;2.85;2.00;;;;;;;20.10;24.66;100717.25;5403302;33;33671;-87
2023/04/27 11:29:21;;;;;;;4.43;1.85;;;;;;;20.22;24.82;100720.88;5403113;33;34041;-87
2023/04/27 11:32:24;;;;;;;5.97;1.85;;;;;;;20.78;25.56;100716.00;5388791;33;34040;-87
2023/04/27 11:35:33;;;;;;;2.35;1.55;;;;;;;21.91;22.07;100714.66;5382893;33;33332;-87
2023/04/27 11:38:36;;;;;;;5.07;1.80;;;;;;;23.33;20.39;100720.03;5380831;32;34645;-87
2023/04/27 11:41:45;;;;;;;4.93;1.70;;;;;;;24.57;20.93;100717.56;5369332;33;34188;-87
2023/04/27 11:45:00;;;;;;;4.50;1.58;;;;;;;25.53;20.21;100722.91;5388816;33;34560;-87
2023/04/27 11:48:03;;;;;;;1.75;1.62;;;;;;;26.35;18.93;100720.38;5390577;33;34796;-87
2023/04/27 11:51:09;;;;;;;1.33;1.23;;;;;;;26.04;19.04;100713.19;5378104;33;33529;-87
2023/04/27 11:54:12;;;;;;;2.20;1.37;;;;;;;26.80;18.93;100715.19;5382047;33;34774;-87
2023/04/27 11:57:15;;;;;;;3.15;1.73;;;;;;;27.58;16.74;100714.72;5382274;33;33837;-87
2023/04/27 12:00:19;;;;;;;4.65;1.62;;;;;;;27.81;17.46;100711.31;5375549;33;34434;-87
2023/04/27 12:03:22;;;;;;;4.10;1.77;;;;;;;27.56;18.10;100715.00;5379590;33;33276;-87
2023/04/27 12:06:27;;;;;;;2.87;1.48;;;;;;;27.24;17.98;100709.06;5378760;33;32702;-87
2023/04/27 12:09:35;;;;;;;2.08;1.60;;;;;;;25.87;19.53;100714.25;5368269;33;33793;-87
2023/04/27 12:12:38;;;;;;;1.65;1.40;;;;;;;26.51;18.09;100698.37;5376228;33;33890;-87
2023/04/27 12:15:41;;;;;;;4.37;1.42;;;;;;;27.09;18.86;100701.59;5379167;33;33788;-87
2023/04/27 12:18:45;;;;;;;1.95;1.45;;;;;;;27.86;17.43;100699.41;5390862;33;34503;-87
2023/04/27 12:21:48;;;;;;;3.45;1.25;;;;;;;26.88;18.02;100693.34;5367086;33;35549;-91
2023/04/27 12:24:51;;;;;;;3.12;1.85;;;;;;;27.18;17.21;100697.19;5379464;33;33881;-91
2023/04/27 12:27:55;;;;;;;2.58;1.60;;;;;;;24.26;19.93;100705.44;5367843;33;34166;-91
2023/04/27 12:30:58;;;;;;;2.47;1.80;;;;;;;24.31;19.64;100709.09;5380245;33;33808;-88
2023/04/27 12:34:01;;;;;;;2.17;1.42;;;;;;;27.09;17.70;100701.59;5385716;33;33761;-88
2023/04/27 12:37:05;;;;;;;2.50;1.65;;;;;;;27.47;17.37;100696.53;5372516;33;33682;-88
2023/04/27 12:40:08;;;;;;;4.20;1.65;;;;;;;29.88;15.52;100693.31;5388397;33;33300;-88
2023/04/27 12:43:11;;;;;;;5.60;1.67;;;;;;;27.82;16.90;100690.03;5368742;33;34281;-88
2023/04/27 12:46:15;;;;;;;1.73;1.60;;;;;;;29.20;16.08;100701.94;5369677;33;34830;-87
2023/04/27 12:49:18;;;;;;;2.55;1.33;;;;;;;29.95;14.88;100691.00;5381127;33;34532;-87
2023/04/27 12:52:22;;;;;;;3.15;1.70;;;;;;;29.02;15.37;100696.03;5373475;33;33965;-87
2023/04/27 12:55:25;;;;;;;1.95;1.15;;;;;;;28.27;16.12;100691.66;5379212;33;33498;-88
2023/04/27 12:58:36;;;;;;;3.03;1.23;;;;;;;28.51;17.11;100702.00;5387324;33;34568;-88
2023/04/27 13:01:38;;;;;;;3.15;1.90;;;;;;;29.50;15.47;100698.78;5398860;32;34348;-87
2023/04/27 13:04:41;;;;;;;1.58;1.20;;;;;;;30.08;15.64;100699.69;5372128;33;35296;-88
2023/04/27 13:07:44;;;;;;;4.68;1.52;;;;;;;30.65;16.40;100698.50;5385166;33;34713;-88
2023/04/27 13:10:47;;;;;;;2.80;1.27;;;;;;;31.47;14.22;100694.19;5385908;33;34565;-88
2023/04/27 13:13:50;;;;;;;1.40;1.30;;;;;;;31.64;13.87;100690.78;5395783;32;34405;-88
2023/04/27 13:16:53;;;;;;;3.50;1.60;;;;;;;31.98;14.64;100687.53;5381814;33;33915;-88
2023/04/27 13:19:56;;;;;;;2.85;1.40;;;;;;;31.60;13.96;100678.63;5382980;33;33750;-88
2023/04/27 13:22:59;;;;;;;2.62;1.60;;;;;;;30.04;14.68;100691.13;5386654;33;34239;-87
2023/04/27 13:26:03;;;;;;;4.00;1.45;;;;;;;29.94;14.54;100692.09;5376922;33;34730;-87
2023/04/27 13:29:06;;;;;;;2.60;1.42;;;;;;;31.09;14.59;100691.59;5376379;33;33792;-88
2023/04/27 13:32:09;;;;;;;3.95;1.33;;;;;;;32.45;13.17;100678.91;5374619;33;33934;-88
2023/04/27 13:35:13;;;;;;;2.65;1.30;;;;;;;31.52;14.90;100682.13;5385243;33;34610;-88
2023/04/27 13:38:15;;;;;;;3.42;1.50;;;;;;;33.45;13.16;100677.59;5384561;33;33902;-88
2023/04/27 13:41:19;;;;;;;2.08;1.52;;;;;;;33.16;13.13;100684.56;5368366;33;33869;-88
2023/04/27 13:44:22;;;;;;;1.83;1.42;;;;;;;31.50;14.06;100682.44;5386699;33;35230;-88
2023/04/27 13:47:26;;;;;;;2.67;1.15;;;;;;;27.62;16.00;100690.94;5369949;33;33281;-89
2023/04/27 13:50:28;;;;;;;2.67;1.45;;;;;;;25.35;17.82;100693.06;5404633;32;33532;-89
2023/04/27 13:53:31;;;;;;;2.25;1.40;;;;;;;24.07;19.38;100693.97;5396476;33;34045;-88
2023/04/27 13:56:36;;;;;;;1.73;1.30;;;;;;;26.71;17.89;100681.78;5391757;33;33806;-88
2023/04/27 13:59:39;;;;;;;2.92;1.58;;;;;;;27.85;17.60;100683.06;5371062;33;35366;-87
2023/04/27 14:02:42;;;;;;;2.97;1.70;;;;;;;30.27;15.64;100679.16;5386414;32;34082;-87
2023/04/27 14:05:47;;;;;;;7.20;1.52;;;;;;;30.07;14.95;100673.88;5366680;33;33659;-87
2023/04/27 14:08:50;;;;;;;1.40;1.30;;;;;;;29.27;15.33;100674.66;5384691;33;33823;-87
2023/04/27 14:11:56;;;;;;;2.00;1.37;;;;;;;28.11;16.62;100684.59;5372801;33;33627;-87
2023/04/27 14:14:59;;;;;;;5.47;1.90;;;;;;;25.60;17.80;100680.50;5398289;33;34545;-89
2023/04/27 14:18:06;;;;;;;2.35;1.60;;;;;;;24.40;18.53;100685.50;5397401;33;33807;-87
2023/04/27 14:21:09;;;;;;;4.47;1.30;;;;;;;23.11;19.75;100689.81;5383912;33;34332;-88
2023/04/27 14:24:12;;;;;;;4.65;1.67;;;;;;;22.89;20.65;100692.47;5397768;33;34389;-87
2023/04/27 14:27:15;;;;;;;1.77;1.60;;;;;;;22.13;20.42;100700.22;5398303;33;33761;-87
2023/04/27 14:30:32;;;;;;;3.45;0.98;;;;;;;22.96;20.15;100695.06;5397833;33;34424;-91
2023/04/27 14:33:35;;;;;;;3.33;2.05;;;;;;;22.08;20.50;100686.41;5397993;33;34536;-87
2023/04/27 14:36:37;;;;;;;2.25;1.62;;;;;;;21.62;21.14;100691.06;5386013;33;33781;-87
2023/04/27 14:39:40;;;;;;;6.22;1.85;;;;;;;21.77;21.61;100705.03;5398973;33;34081;-87
2023/04/27 14:42:49;;;;;;;4.37;1.48;;;;;;;22.65;20.17;100702.81;5401910;33;34118;-87
2023/04/27 14:45:52;;;;;;;3.03;2.40;;;;;;;22.90;20.72;100705.09;5399565;33;33555;-86
2023/04/27 14:49:03;;;;;;;2.55;1.67;;;;;;;21.18;21.36;100709.81;5375995;33;33823;-86
2023/04/27 14:52:06;;;;;;;5.10;1.55;;;;;;;21.21;21.60;100701.94;5398676;33;34378;-86
2023/04/27 14:55:12;;;;;;;2.65;1.80;;;;;;;21.07;22.00;100703.25;5364215;33;34556;-86
2023/04/27 14:58:15;;;;;;;4.05;1.55;;;;;;;20.59;22.29;100704.31;5371208;33;33785;-86
2023/04/27 15:01:18;;;;;;;3.67;1.70;;;;;;;19.25;24.15;100705.28;5380248;33;34512;-86
2023/04/27 15:04:21;;;;;;;2.75;1.62;;;;;;;18.34;26.10;100700.44;5356289;33;34407;-86
2023/04/27 15:07:24;;;;;;;3.28;1.83;;;;;;;17.64;27.21;100697.69;5360262;33;34043;-86
2023/04/27 15:10:27;;;;;;;3.03;1.70;;;;;;;17.35;26.96;100709.94;5372066;33;33758;-86
2023/04/27 15:13:33;;;;;;;2.20;1.80;;;;;;;16.59;28.08;100713.16;5376369;33;34160;-86
2023/04/27 15:16:36;;;;;;;3.37;1.80;;;;;;;16.40;30.20;100715.66;5389792;33;34627;-86
2023/04/27 15:19:40;;;;;;;2.25;1.73;;;;;;;16.15;29.08;100714.59;5396796;33;34277;-86
2023/04/27 15:22:42;;;;;;;3.72;1.80;;;;;;;16.13;29.27;100708.53;5361729;33;34093;-86
2023/04/27 15:25:49;;;;;;;5.47;1.70;;;;;;;15.97;28.61;100707.00;5375830;33;33415;-86
2023/04/27 15:28:53;;;;;;;3.67;1.65;;;;;;;15.62;28.90;100712.53;5390285;33;34042;-87
2023/04/27 15:31:57;;;;;;;4.82;2.03;;;;;;;15.43;30.39;100706.78;5389744;33;34139;-87
2023/04/27 15:35:00;;;;;;;5.25;2.00;;;;;;;15.26;31.24;100710.88;5392767;33;33926;-87
2023/04/27 15:38:03;;;;;;;3.33;1.80;;;;;;;15.02;30.16;100714.06;5371869;33;34746;-87
2023/04/27 15:41:06;;;;;;;3.45;1.62;;;;;;;14.84;30.27;100711.87;5397143;33;35202;-87
2023/04/27 15:44:10;;;;;;;3.80;1.90;;;;;;;14.73;30.57;100710.53;5402724;32;34247;-87
2023/04/27 15:47:14;;;;;;;5.95;2.00;;;;;;;14.63;31.03;100713.59;5395133;33;33837;-87
2023/04/27 15:50:21;;;;;;;4.18;1.80;;;;;;;14.58;32.13;100710.63;5382297;33;33743;-87
2023/04/27 15:53:25;;;;;;;2.60;2.35;;;;;;;14.49;32.16;100712.59;5406947;33;34038;-87
